Airfield :







YOU CAN JOIN US ON...

 
LOGIN :

Register | Disclaimer

   EN    FR    IT 

 









Legend :    VFR   Marginal VFR   IFR   Intensive IFR   Very Intensive IFR
Visi :
Ceiling :
>= 8 km
>= 3000ft
5 to 8 km
1000 to 3000 ft
1500m to 5 km
500 to 1000 ft
800 to 1500m
200 to 500 ft
< 800m
< 200 ft
Symbols :   Thunderstorms  Fog  Heavy snow  Heavy precipitations  Wind > 20 kt






- Airport Elevation : 118 ft
- IATA code : YUL


CYUL - Montréal - Pierre-Elliott-Trudeau Int.

CURRENT METAR :
  • 200200Z 34010KT 15SM FEW050 M11/M19 A3036 RMK SC1 SC TR SLP285

EXPIRED METARs :
  • 200100Z 33011KT 15SM FEW050 M10/M19 A3034 RMK SC1 SC TR SLP280
  • 200000Z 27011KT 15SM FEW050 M09/M18 A3034 RMK SC1 SC TR SLP276
  • 192300Z 26013KT 15SM FEW050 FEW250 M08/M17 A3031 RMK SC1CI1 SC TR CI TR SLP266

TAF TAF CYUL
Valid from the 20 at 00:00 until the 21 at 00:00 UTC


192338Z 2000/2024 26013KT P6SM FEW050
BECMG 2000/2002 27007KT
FM200600 29005KT P6SM SCT040
BECMG 2014/2016 28012G22KT
FM202200 28007KT P6SM FEW040 RMK NXT FCST BY 200300Z
ATIS : ENG : +1 514-633-3037 FRA : +1 514-633-3034



MET'MAP, your aeronautical weather chart ! - Copyright ORBIFLY December 2007 - Disclaimer

ORBIFLY MET'MAP TEAM :

Programming & Development : Alexandra Zaïnal
Concept & original design : Baudouin d'Aumeries
Assistance for programming : Marc-Olivier Méhu
Technical & hardware support : Manuel Goepfert

Contact : metmap@orbifly.com




SOURCES & CREDITS :

   NOAA